Col Jabara, KS

8:58 PM CST on January 25, 2015 (GMT -0600)
Wichita Mid-Continent | Change Station
CLOSE
Current Station
Airport
Location: Wichita,
Elevation: 1332 ft
Nearby Weather Stations

Elev 1332 ft 37.65 °N, 97.43 °W | Updated 1 hour ago

Clear
Clear
42 °F
Feels Like 38 °F
N
7
Wind Variable Wind from North

Today
High -- | Low -- °F
--% Chance of Precip.
Yesterday
High -- | Low -- °F
Precip. -- in
7:38 AM 5:44 PM
Waxing Crescent, 38% visible
Pressure 30.15 in
Visibility 10.0 miles
Clouds Scattered Clouds 2500 ft
Windchill 38 °F
Dew Point 29 °F
Humidity 60%
Rainfall 0.00 in
Snow Depth Not available.
UV 0 out of 12
Pollen 2.30 out of 12
Air Quality Not available.
Flu Activity Not available.
METAR KICT 260153Z 36006KT 10SM SCT025 06/M02 A3014 RMK AO2 SLP210 T00561017

More Conditions Fewer Conditions

Pressure 30.15 in
Visibility 10.0 miles
Clouds Scattered Clouds 2500 ft
Windchill 38 °F
Dew Point 29 °F
Humidity 60%
Rainfall 0.00 in
Snow Depth Not available.
UV 0 out of 12
Pollen 2.30 out of 12
Air Quality Not available.
Flu Activity Not available.
METAR KICT 260153Z 36006KT 10SM SCT025 06/M02 A3014 RMK AO2 SLP210 T00561017

More Conditions Fewer Conditions

10-Day Weather Forecast

Almanac

Astronomy

Jan. 25, 2015 Rise Set
Actual Time
Civil Twilight
Nautical Twilight
Astronomical Twilight
Moon
Length of Visible Light
Length of Day
Tomorrow will be .
, % of the Moon is Illuminated

Today's Extremes

State Highs State Lows

Community

WunderPhotos

Upload Photos

1,790,085 photos uploaded!

WunderBlogs® & News

Nearby

Air Quality

  Air Quality AQ Index Pollutant
Not available.

Snow Depth

Station Depth Elevation

Earthquake Activity

City Distance Mag. Time & Date
Minimum magnitude displayed is 2.5.

Coastal Water Temperatures

Place Temperature

Nearby Weather Stations